| time (UTC) | temp F | wind direction | speed MPH | gust MPH | rain 1hr in | rain 24hr in | rain mn in | humidity % | barometer mb |
| 20260503020020 | 36 | 130 | 0.0 | 2.0 | 0.00 | 0.00 | 0.00 | 78 | 1008.8 |
| 20260503014522 | 36 | 130 | 0.0 | 2.0 | 0.00 | 0.00 | 0.00 | 77 | 1008.9 |
| 20260503013023 | 37 | 130 | 0.0 | 0.0 | 0.00 | 0.00 | 0.00 | 77 | 1009.0 |
| 20260503011525 | 37 | 130 | 0.0 | 0.0 | 0.00 | 0.00 | 0.00 | 77 | 1009.0 |
| 20260503010021 | 37 | 130 | 0.0 | 0.0 | 0.00 | 0.00 | 0.00 | 75 | 1009.1 |
| 20260503004523 | 38 | 130 | 0.0 | 1.0 | 0.00 | 0.00 | 0.00 | 73 | 1009.3 |
| 20260503001525 | 39 | 130 | 0.0 | 3.0 | 0.00 | 0.00 | 0.00 | 67 | 1009.6 |
| 20260503000026 | 41 | 130 | 1.0 | 4.0 | 0.00 | 0.00 | 0.00 | 64 | 1009.8 |
| 20260502234515 | 42 | 130 | 3.0 | 5.0 | 0.00 | 0.00 | 0.00 | 62 | 1009.9 |
| 20260502233020 | 42 | 131 | 2.0 | 6.0 | 0.00 | 0.00 | 0.00 | 61 | 1010.2 |
| 20260502231526 | 42 | 123 | 3.0 | 8.0 | 0.00 | 0.00 | 0.00 | 63 | 1010.3 |
| 20260502230023 | 43 | 103 | 4.0 | 7.0 | 0.00 | 0.00 | 0.00 | 64 | 1010.5 |
| 20260502224524 | 43 | 136 | 3.0 | 6.0 | 0.00 | 0.00 | 0.00 | 64 | 1010.7 |
| 20260502223019 | 43 | 109 | 3.0 | 8.0 | 0.00 | 0.00 | 0.00 | 62 | 1010.8 |
| 20260502221523 | 42 | 122 | 5.0 | 10.0 | 0.00 | 0.00 | 0.00 | 62 | 1010.8 |
| 20260502220025 | 43 | 97 | 6.0 | 12.0 | 0.00 | 0.00 | 0.00 | 61 | 1011.1 |
| 20260502214508 | 45 | 101 | 2.0 | 8.0 | 0.00 | 0.00 | 0.00 | 55 | 1011.1 |
| 20260502213017 | 49 | 72 | 4.0 | 10.0 | 0.00 | 0.00 | 0.00 | 47 | 1011.2 |
| 20260502211522 | 51 | 66 | 2.0 | 9.0 | 0.00 | 0.00 | 0.00 | 43 | 1011.2 |
| 20260502210025 | 51 | 142 | 4.0 | 13.0 | 0.00 | 0.00 | 0.00 | 44 | 1011.3 |
| 20260502204519 | 52 | 162 | 4.0 | 16.0 | 0.00 | 0.00 | 0.00 | 41 | 1011.4 |
| 20260502203016 | 51 | 195 | 3.0 | 17.0 | 0.00 | 0.00 | 0.00 | 41 | 1011.8 |
| 20260502201519 | 47 | 224 | 5.0 | 12.0 | 0.00 | 0.00 | 0.00 | 50 | 1012.0 |
| 20260502200022 | 43 | 91 | 2.0 | 10.0 | 0.00 | 0.00 | 0.00 | 71 | 1012.4 |
| 20260502194531 | 43 | 78 | 5.0 | 12.0 | 0.00 | 0.00 | 0.00 | 68 | 1012.6 |
| 20260502191520 | 42 | 123 | 4.0 | 11.0 | 0.00 | 0.00 | 0.00 | 72 | 1013.0 |
| 20260502190020 | 43 | 92 | 5.0 | 10.0 | 0.00 | 0.00 | 0.00 | 69 | 1013.4 |
| 20260502184531 | 44 | 132 | 5.0 | 11.0 | 0.00 | 0.00 | 0.00 | 64 | 1013.5 |
| 20260502183027 | 48 | 100 | 6.0 | 11.0 | 0.00 | 0.00 | 0.00 | 56 | 1013.6 |
| 20260502181513 | 49 | 117 | 3.0 | 13.0 | 0.00 | 0.00 | 0.00 | 52 | 1013.7 |
| 20260502161528 | 43 | 90 | 5.0 | 8.0 | 0.00 | 0.00 | 0.00 | 63 | 1015.3 |
| 20260502151535 | 43 | 131 | 3.0 | 7.0 | 0.00 | 0.00 | 0.00 | 60 | 1015.8 |
| 20260502123022 | 32 | 330 | 0.0 | 4.0 | 0.00 | 0.00 | 0.00 | 79 | 1016.8 |
| 20260502121521 | 30 | 329 | 0.0 | 5.0 | 0.00 | 0.00 | 0.00 | 83 | 1016.8 |
| 20260502114509 | 27 | 328 | 1.0 | 4.0 | 0.00 | 0.00 | 0.00 | 87 | 1017.1 |
| 20260502113010 | 26 | 341 | 0.0 | 5.0 | 0.00 | 0.00 | 0.00 | 88 | 1017.0 |
| 20260502111514 | 26 | 339 | 0.0 | 6.0 | 0.00 | 0.00 | 0.00 | 88 | 1017.0 |
| 20260502110026 | 26 | 345 | 1.0 | 5.0 | 0.00 | 0.00 | 0.00 | 88 | 1017.0 |
| 20260502104525 | 26 | 359 | 2.0 | 4.0 | 0.00 | 0.00 | 0.00 | 89 | 1017.0 |
| 20260502103007 | 26 | 319 | 2.0 | 4.0 | 0.00 | 0.00 | 0.00 | 88 | 1017.0 |
| 20260502101512 | 26 | 310 | 1.0 | 7.0 | 0.00 | 0.00 | 0.00 | 88 | 1017.1 |
| 20260502091509 | 26 | 352 | 1.0 | 5.0 | 0.00 | 0.00 | 0.00 | 89 | 1017.2 |
| 20260502071526 | 27 | 143 | 1.0 | 4.0 | 0.00 | 0.00 | 0.00 | 88 | 1017.7 |
| 20260502070028 | 27 | 148 | 1.0 | 4.0 | 0.00 | 0.00 | 0.00 | 89 | 1017.7 |
| 20260502063021 | 27 | 147 | 2.0 | 4.0 | 0.00 | 0.00 | 0.00 | 90 | 1018.0 |
| 20260502061522 | 26 | 146 | 1.0 | 4.0 | 0.00 | 0.00 | 0.00 | 90 | 1018.1 |
| 20260502060008 | 26 | 146 | 1.0 | 3.0 | 0.00 | 0.00 | 0.00 | 89 | 1018.2 |
| 20260502054508 | 26 | 146 | 1.0 | 4.0 | 0.00 | 0.00 | 0.00 | 89 | 1018.3 |
| 20260502053016 | 26 | 146 | 1.0 | 2.0 | 0.00 | 0.00 | 0.00 | 88 | 1018.3 |
| 20260502051519 | 27 | 146 | 1.0 | 3.0 | 0.00 | 0.00 | 0.00 | 88 | 1018.3 |
| 20260502050027 | 27 | 146 | 1.0 | 2.0 | 0.00 | 0.00 | 0.00 | 88 | 1018.4 |
| 20260502044504 | 27 | 146 | 0.0 | 3.0 | 0.00 | 0.00 | 0.00 | 87 | 1018.4 |
| 20260502043012 | 27 | 146 | 1.0 | 3.0 | 0.00 | 0.00 | 0.00 | 87 | 1018.5 |
| 20260502041518 | 27 | 146 | 0.0 | 3.0 | 0.00 | 0.00 | 0.00 | 86 | 1018.6 |
| 20260502040023 | 27 | 146 | 0.0 | 2.0 | 0.00 | 0.00 | 0.00 | 86 | 1018.6 |
| 20260502033011 | 28 | 146 | 0.0 | 2.0 | 0.00 | 0.00 | 0.00 | 85 | 1018.5 |
| 20260502031511 | 28 | 146 | 0.0 | 2.0 | 0.00 | 0.00 | 0.00 | 84 | 1018.5 |
| 20260502030023 | 28 | 146 | 0.0 | 2.0 | 0.00 | 0.00 | 0.00 | 83 | 1018.5 |
| 20260502024520 | 29 | 146 | 0.0 | 1.0 | 0.00 | 0.00 | 0.00 | 82 | 1018.5 |
| 20260502023033 | 29 | 146 | 1.0 | 2.0 | 0.00 | 0.00 | 0.00 | 80 | 1018.4 |
| 20260502021530 | 30 | 146 | 1.0 | 2.0 | 0.00 | 0.00 | 0.00 | 79 | 1018.2 |